Home   Weather   USA   Abilene   Past weeks
Flag for USA

Past Weather in Abilene, Texas, USA — Yesterday and Last 2 Weeks

Currently: 66 °F. Clear. (Weather station: Abilene Regional Airport, USA). See more current weather

Past Weather in Abilene — Graph

°F

Abilene Temperature Yesterday

Maximum temperature yesterday: 79 °F (at 4:52 pm)
Minimum temperature yesterday: 56 °F (at 6:52 am)
Average temperature yesterday: 67 °F

High & Low Weather Summary for the Past Weeks

 TemperatureHumidityPressure
High106 °F (May 8, 4:52 pm)87% (May 16, 6:52 am)30.27 "Hg (May 16, 6:52 am)
Low56 °F (May 22, 6:52 am)8% (May 18, 6:52 pm)29.40 "Hg (May 19, 7:52 pm)
Average85 °F42%29.77 "Hg
* Reported May 7 10:52 pm — May 22 10:52 pm, Abilene. Weather by CustomWeather, © 2022

Note: Actual official high and low records may vary slightly from our data, if they occured in-between our weather recording intervals... More about our weather records

Abilene Weather History for the Previous 24 Hours

Scroll right to see more
 ConditionsComfort  
Time TempWeatherWind HumidityBarometerVisibility
10:52 pm
Sun, May 22
68 °FClear.8 mph53%30.09 "Hg10 mi
9:52 pm70 °FClear.8 mph47%30.06 "Hg10 mi
8:52 pm72 °FClear.8 mph44%30.06 "Hg10 mi
7:52 pm75 °FSunny.12 mph40%30.05 "Hg10 mi
6:52 pm78 °FSunny.6 mph36%30.06 "Hg10 mi
5:52 pm78 °FSunny.8 mph35%30.07 "Hg10 mi
4:52 pm79 °FSunny.10 mph34%30.09 "Hg10 mi
3:52 pm78 °FSunny.8 mph33%30.12 "Hg10 mi
2:52 pm75 °FSunny.3 mph36%30.15 "Hg10 mi
1:52 pm73 °FSunny.8 mph37%30.19 "Hg10 mi
12:52 pm71 °FSunny.13 mph36%30.21 "Hg10 mi
11:52 am68 °FPassing clouds.12 mph39%30.23 "Hg10 mi
10:52 am62 °FOvercast.10 mph44%30.25 "Hg10 mi
9:52 am59 °FOvercast.12 mph48%30.27 "Hg10 mi
8:52 am58 °FOvercast.10 mph46%30.27 "Hg10 mi
7:52 am57 °FOvercast.16 mph47%30.27 "Hg10 mi
6:52 am56 °FOvercast.17 mph47%30.22 "Hg10 mi
5:52 am58 °FOvercast.15 mph46%30.19 "Hg10 mi
4:52 am59 °FOvercast.16 mph44%30.16 "Hg10 mi
3:52 am62 °FOvercast.17 mph41%30.16 "Hg10 mi
2:52 am62 °FOvercast.15 mph44%30.11 "Hg10 mi
1:52 am62 °FClear.14 mph50%30.11 "Hg10 mi
12:52 am64 °FClear.14 mph52%30.10 "Hg10 mi
Weather by CustomWeather, © 2022

See weather overview